createdAt,value
2019-04-20T00:00:41.685Z,11.50
2019-04-20T00:03:11.717Z,11.40
2019-04-20T00:05:41.371Z,11.40
2019-04-20T00:08:19.234Z,11.40
2019-04-20T00:10:51.358Z,11.40
2019-04-20T00:13:24.067Z,11.40
2019-04-20T00:15:43.110Z,11.40
2019-04-20T00:18:13.466Z,11.30
2019-04-20T00:20:50.408Z,11.30
2019-04-20T00:23:33.694Z,11.30
2019-04-20T00:26:24.901Z,11.30
2019-04-20T00:29:06.904Z,11.30
2019-04-20T00:31:29.715Z,11.30
2019-04-20T00:33:59.136Z,11.20
2019-04-20T00:36:20.158Z,11.20
2019-04-20T00:38:53.646Z,11.20
2019-04-20T00:41:21.229Z,11.20
2019-04-20T00:43:51.196Z,11.10
2019-04-20T00:46:26.434Z,11.10
2019-04-20T00:48:59.186Z,11.00
2019-04-20T00:51:35.342Z,11.00
2019-04-20T00:53:56.867Z,10.90
2019-04-20T00:56:24.476Z,10.90
2019-04-20T00:59:12.212Z,10.80
2019-04-20T01:01:42.600Z,10.90
2019-04-20T01:04:15.367Z,10.80
2019-04-20T01:06:57.553Z,10.80
2019-04-20T01:09:33.040Z,10.70
2019-04-20T01:12:09.180Z,10.70
2019-04-20T01:14:40.598Z,10.60
2019-04-20T01:17:11.785Z,10.60
2019-04-20T01:19:34.620Z,10.60
2019-04-20T01:22:10.213Z,10.50
2019-04-20T01:24:37.086Z,10.50
2019-04-20T01:27:08.235Z,10.50
2019-04-20T01:29:43.649Z,10.50
2019-04-20T01:32:18.430Z,10.40
2019-04-20T01:34:51.138Z,10.40
2019-04-20T01:37:24.700Z,10.40
2019-04-20T01:39:45.184Z,10.40
2019-04-20T01:42:11.018Z,10.40
2019-04-20T01:44:44.050Z,10.30
2019-04-20T01:47:12.029Z,10.30
2019-04-20T01:49:42.374Z,10.30
2019-04-20T01:52:20.159Z,10.20
2019-04-20T01:55:04.782Z,10.20
2019-04-20T01:57:29.829Z,10.10
2019-04-20T02:00:17.647Z,10.10
2019-04-20T02:02:53.932Z,10.00
2019-04-20T02:05:24.706Z,10.00
2019-04-20T02:07:52.670Z,9.90
2019-04-20T02:10:30.887Z,9.90
2019-04-20T02:12:57.947Z,9.80
2019-04-20T02:15:30.973Z,9.80
2019-04-20T02:18:07.711Z,9.80
2019-04-20T02:20:44.573Z,9.80
2019-04-20T02:23:10.638Z,9.90
2019-04-20T02:25:26.982Z,9.90
2019-04-20T02:28:16.669Z,9.90
2019-04-20T02:31:11.068Z,9.90
2019-04-20T02:36:27.837Z,9.90
2019-04-20T02:41:17.783Z,9.90
2019-04-20T02:44:04.430Z,9.80
2019-04-20T02:46:22.426Z,9.80
2019-04-20T02:48:54.957Z,9.80
2019-04-20T02:51:22.935Z,9.80
2019-04-20T02:54:02.231Z,9.70
2019-04-20T02:56:21.866Z,9.80
2019-04-20T02:59:13.355Z,9.70
2019-04-20T03:01:36.433Z,9.70
2019-04-20T03:03:53.888Z,9.70
2019-04-20T03:06:30.454Z,9.70
2019-04-20T03:09:17.712Z,9.60
2019-04-20T03:11:55.350Z,9.60
2019-04-20T03:14:09.285Z,9.60
2019-04-20T03:16:39.684Z,9.60
2019-04-20T03:19:10.843Z,9.60
2019-04-20T03:21:48.888Z,9.60
2019-04-20T03:24:23.466Z,9.50
2019-04-20T03:26:47.745Z,9.50
2019-04-20T03:29:52.289Z,9.50
2019-04-20T03:35:08.112Z,9.40
2019-04-20T03:37:30.718Z,9.40
2019-04-20T03:39:52.602Z,9.40
2019-04-20T03:42:10.342Z,9.40
2019-04-20T03:44:43.076Z,9.40
2019-04-20T03:47:13.662Z,9.40
2019-04-20T03:50:06.133Z,9.40
2019-04-20T03:52:36.516Z,9.50
2019-04-20T03:55:26.313Z,9.40
2019-04-20T03:58:08.997Z,9.40
2019-04-20T04:00:50.779Z,9.40
2019-04-20T04:03:41.098Z,9.40
2019-04-20T04:06:07.720Z,9.40
2019-04-20T04:08:30.375Z,9.40
2019-04-20T04:11:12.343Z,9.40
2019-04-20T04:13:24.974Z,9.40
2019-04-20T04:15:59.231Z,9.40
2019-04-20T04:18:31.816Z,9.40
2019-04-20T04:21:03.045Z,9.40
2019-04-20T04:23:47.395Z,9.40
2019-04-20T04:26:17.631Z,9.30
2019-04-20T04:28:43.332Z,9.30
2019-04-20T04:31:16.422Z,9.30
2019-04-20T04:36:18.205Z,9.20
2019-04-20T04:38:53.474Z,9.20
2019-04-20T04:41:24.008Z,9.20
2019-04-20T04:44:00.682Z,9.20
2019-04-20T04:46:05.820Z,9.20
2019-04-20T04:48:40.631Z,9.20
2019-04-20T04:51:14.879Z,9.10
2019-04-20T04:53:47.978Z,9.20
2019-04-20T04:56:14.155Z,9.20
2019-04-20T04:58:38.465Z,9.20
2019-04-20T05:01:11.686Z,9.20
2019-04-20T05:04:02.884Z,9.20
2019-04-20T05:06:27.369Z,9.30
2019-04-20T05:08:49.874Z,9.30
2019-04-20T05:11:15.234Z,9.30
2019-04-20T05:13:52.888Z,9.30
2019-04-20T05:16:37.365Z,9.30
2019-04-20T05:19:11.909Z,9.40
2019-04-20T05:21:58.672Z,9.40
2019-04-20T05:25:02.406Z,9.40
2019-04-20T05:27:56.443Z,9.40
2019-04-20T05:30:09.826Z,9.50
2019-04-20T05:32:48.252Z,9.50
2019-04-20T05:35:31.370Z,9.60
2019-04-20T05:38:18.182Z,9.60
2019-04-20T05:40:38.616Z,9.60
2019-04-20T05:43:17.714Z,9.60
2019-04-20T05:45:42.747Z,9.70
2019-04-20T05:48:11.867Z,9.80
2019-04-20T05:50:51.942Z,9.80
2019-04-20T05:53:19.336Z,9.90
2019-04-20T05:55:49.278Z,10.00
2019-04-20T05:58:30.999Z,10.10
2019-04-20T06:00:56.811Z,10.20
2019-04-20T06:03:20.246Z,10.40
2019-04-20T06:05:59.327Z,10.50
2019-04-20T06:08:39.068Z,10.70
2019-04-20T06:10:56.354Z,10.90
2019-04-20T06:13:52.406Z,11.10
2019-04-20T06:16:44.096Z,11.60
2019-04-20T06:19:22.337Z,11.80
2019-04-20T06:21:53.064Z,12.00
2019-04-20T06:24:37.528Z,12.10
2019-04-20T06:26:59.651Z,12.30
2019-04-20T06:29:23.595Z,12.40
2019-04-20T06:31:58.009Z,12.40
2019-04-20T06:34:40.083Z,12.40
2019-04-20T06:37:07.054Z,12.40
2019-04-20T06:42:10.780Z,12.40
2019-04-20T06:44:36.825Z,12.50
2019-04-20T06:47:11.581Z,12.50
2019-04-20T06:49:38.109Z,12.60
2019-04-20T06:52:48.010Z,12.60
2019-04-20T06:55:19.802Z,12.70
2019-04-20T06:57:54.860Z,12.80
2019-04-20T07:00:27.030Z,12.90
2019-04-20T07:02:56.370Z,13.00
2019-04-20T07:05:37.902Z,13.10
2019-04-20T07:08:36.038Z,13.20
2019-04-20T07:10:45.593Z,13.30
2019-04-20T07:12:57.940Z,13.40
2019-04-20T07:15:38.763Z,13.50
2019-04-20T07:18:24.545Z,13.70
2019-04-20T07:21:09.531Z,13.80
2019-04-20T07:23:57.627Z,14.00
2019-04-20T07:26:10.464Z,14.20
2019-04-20T07:28:41.067Z,14.30
2019-04-20T07:31:08.665Z,14.50
2019-04-20T07:33:40.246Z,14.70
2019-04-20T07:36:14.892Z,14.80
2019-04-20T07:38:46.224Z,14.90
2019-04-20T07:41:08.718Z,15.00
2019-04-20T07:43:52.744Z,15.10
2019-04-20T07:46:23.866Z,15.30
2019-04-20T07:48:42.231Z,15.50
2019-04-20T07:51:04.806Z,15.80
2019-04-20T07:53:36.644Z,15.90
2019-04-20T07:56:17.727Z,16.00
2019-04-20T07:58:35.811Z,16.10
2019-04-20T08:01:30.206Z,16.10
2019-04-20T08:04:06.312Z,16.20
2019-04-20T08:06:18.102Z,16.30
2019-04-20T08:08:58.633Z,16.40
2019-04-20T08:11:27.006Z,16.40
2019-04-20T08:14:05.989Z,16.50
2019-04-20T08:16:40.903Z,16.60
2019-04-20T08:19:07.855Z,16.70
2019-04-20T08:21:36.205Z,16.80
2019-04-20T08:24:10.127Z,16.90
2019-04-20T08:26:23.560Z,17.00
2019-04-20T08:28:57.835Z,17.00
2019-04-20T08:32:21.378Z,17.10
2019-04-20T08:34:53.749Z,17.20
2019-04-20T08:37:17.248Z,17.30
2019-04-20T08:39:58.408Z,17.40
2019-04-20T08:42:24.825Z,17.50
2019-04-20T08:45:03.849Z,17.50
2019-04-20T08:50:21.260Z,17.60
2019-04-20T08:55:14.806Z,17.70
2019-04-20T08:57:31.187Z,17.70
2019-04-20T09:00:03.205Z,17.80
2019-04-20T09:02:32.514Z,17.80
2019-04-20T09:05:11.334Z,17.80
2019-04-20T09:07:49.989Z,17.90
2019-04-20T09:10:30.753Z,18.10
2019-04-20T09:12:53.127Z,18.10
2019-04-20T09:15:10.488Z,18.20
2019-04-20T09:17:50.612Z,18.30
2019-04-20T09:20:30.510Z,18.30
2019-04-20T09:23:07.049Z,18.30
2019-04-20T09:28:18.824Z,18.50
2019-04-20T09:30:54.425Z,18.50
2019-04-20T09:33:46.991Z,18.60
2019-04-20T09:36:13.931Z,18.70
2019-04-20T09:39:00.097Z,18.70
2019-04-20T09:41:47.034Z,18.70
2019-04-20T09:44:00.292Z,18.90
2019-04-20T09:46:30.915Z,18.90
2019-04-20T09:49:12.203Z,18.90
2019-04-20T09:51:51.147Z,19.00
2019-04-20T09:54:22.968Z,19.10
2019-04-20T09:57:00.542Z,19.10
2019-04-20T09:59:28.403Z,19.20
2019-04-20T10:01:45.053Z,19.20
2019-04-20T10:04:10.958Z,19.30
2019-04-20T10:06:41.360Z,19.30
2019-04-20T10:09:11.612Z,19.40
2019-04-20T10:11:43.632Z,19.50
2019-04-20T10:14:12.314Z,19.40
2019-04-20T10:16:41.990Z,19.60
2019-04-20T10:19:11.931Z,19.70
2019-04-20T10:21:45.626Z,19.80
2019-04-20T10:24:14.813Z,19.80
2019-04-20T10:26:44.917Z,19.90
2019-04-20T10:29:15.364Z,20.00
2019-04-20T10:31:50.491Z,20.10
2019-04-20T10:34:15.846Z,20.10
2019-04-20T10:37:04.157Z,20.10
2019-04-20T10:39:36.269Z,20.20
2019-04-20T10:42:06.020Z,20.20
2019-04-20T10:44:36.695Z,20.30
2019-04-20T10:47:07.271Z,20.40
2019-04-20T10:49:37.355Z,20.40
2019-04-20T10:52:07.668Z,20.50
2019-04-20T10:54:38.413Z,20.50
2019-04-20T10:57:07.910Z,20.50
2019-04-20T10:59:37.287Z,20.60
2019-04-20T11:02:07.790Z,20.70
2019-04-20T11:04:37.168Z,20.80
2019-04-20T11:07:06.253Z,20.90
2019-04-20T11:09:36.542Z,21.10
2019-04-20T11:12:06.398Z,21.30
2019-04-20T11:14:40.099Z,21.40
2019-04-20T11:17:06.682Z,21.40
2019-04-20T11:19:37.077Z,21.50
2019-04-20T11:22:06.368Z,21.70
2019-04-20T11:24:36.850Z,21.80
2019-04-20T11:27:06.031Z,21.70
2019-04-20T11:29:36.055Z,21.70
2019-04-20T11:32:05.353Z,21.70
2019-04-20T11:34:38.408Z,21.80
2019-04-20T11:37:06.850Z,21.80
2019-04-20T11:39:37.023Z,21.80
2019-04-20T11:42:07.661Z,21.90
2019-04-20T11:44:38.130Z,21.90
2019-04-20T11:47:08.463Z,22.00
2019-04-20T11:49:37.735Z,22.00
2019-04-20T11:52:07.811Z,21.90
2019-04-20T11:54:37.023Z,21.80
2019-04-20T11:57:07.060Z,21.80
2019-04-20T11:59:37.108Z,21.80
2019-04-20T12:02:21.563Z,21.80
2019-04-20T12:05:11.586Z,21.80
2019-04-20T12:07:24.979Z,21.90
2019-04-20T12:09:59.392Z,21.80
2019-04-20T12:12:35.001Z,21.80
2019-04-20T12:14:57.199Z,21.70
2019-04-20T12:17:26.323Z,21.70
2019-04-20T12:19:55.602Z,21.80
2019-04-20T12:22:24.698Z,21.80
2019-04-20T12:24:54.093Z,21.90
2019-04-20T12:27:24.988Z,21.90
2019-04-20T12:29:57.473Z,21.90
2019-04-20T12:32:35.217Z,21.90
2019-04-20T12:34:58.298Z,22.00
2019-04-20T12:37:27.410Z,22.10
2019-04-20T12:39:57.454Z,22.10
2019-04-20T12:42:28.803Z,22.10
2019-04-20T12:44:57.973Z,22.10
2019-04-20T12:47:28.364Z,22.10
2019-04-20T12:50:01.414Z,22.10
2019-04-20T12:52:30.712Z,22.10
2019-04-20T12:55:01.674Z,22.20
2019-04-20T12:57:30.602Z,22.10
2019-04-20T12:59:59.704Z,22.10
2019-04-20T13:02:29.331Z,22.10
2019-04-20T13:04:59.533Z,22.10
2019-04-20T13:07:35.520Z,22.20
2019-04-20T13:10:02.662Z,22.20
2019-04-20T13:12:42.473Z,22.20
2019-04-20T13:15:34.175Z,22.10
2019-04-20T13:18:05.381Z,22.20
2019-04-20T13:20:34.642Z,22.20
2019-04-20T13:23:07.400Z,22.20
2019-04-20T13:25:37.184Z,22.10
2019-04-20T13:28:07.340Z,22.10
2019-04-20T13:30:37.661Z,22.10
2019-04-20T13:33:07.955Z,22.10
2019-04-20T13:35:38.351Z,22.10
2019-04-20T13:38:07.924Z,22.10
2019-04-20T13:40:37.929Z,22.10
2019-04-20T13:43:07.900Z,22.10
2019-04-20T13:45:37.202Z,22.10
2019-04-20T13:48:06.673Z,22.10
2019-04-20T13:50:36.058Z,22.10
2019-04-20T13:53:05.528Z,22.10
2019-04-20T13:55:35.936Z,22.20
2019-04-20T13:58:27.668Z,22.20
2019-04-20T14:01:03.220Z,22.10
2019-04-20T14:03:32.494Z,22.20
2019-04-20T14:06:02.655Z,22.10
2019-04-20T14:08:33.764Z,22.20
2019-04-20T14:11:03.180Z,22.30
2019-04-20T14:13:40.352Z,22.20
2019-04-20T14:16:03.207Z,22.20
2019-04-20T14:18:33.275Z,22.20
2019-04-20T14:21:02.563Z,22.20
2019-04-20T14:23:32.769Z,22.20
2019-04-20T14:26:03.116Z,22.30
2019-04-20T14:28:33.286Z,22.30
2019-04-20T14:31:03.781Z,22.30
2019-04-20T14:33:33.105Z,22.30
2019-04-20T14:36:03.237Z,22.30
2019-04-20T14:38:33.730Z,22.30
2019-04-20T14:41:04.298Z,22.40
2019-04-20T14:43:34.728Z,22.40
2019-04-20T14:46:05.010Z,22.50
2019-04-20T14:48:36.611Z,22.40
2019-04-20T14:51:05.919Z,22.40
2019-04-20T14:53:35.614Z,22.30
2019-04-20T14:56:05.376Z,22.30
2019-04-20T14:58:57.660Z,22.30
2019-04-20T15:01:39.052Z,22.30
2019-04-20T15:04:14.569Z,22.30
2019-04-20T15:06:39.979Z,22.30
2019-04-20T15:09:10.808Z,22.30
2019-04-20T15:11:41.640Z,22.30
2019-04-20T15:14:11.098Z,22.40
2019-04-20T15:16:40.492Z,22.30
2019-04-20T15:19:29.421Z,22.30
2019-04-20T15:22:00.178Z,22.40
2019-04-20T15:24:29.429Z,22.40
2019-04-20T15:26:58.539Z,22.40
2019-04-20T15:29:28.491Z,22.40
2019-04-20T15:31:57.912Z,22.30
2019-04-20T15:34:26.995Z,22.30
2019-04-20T15:36:56.105Z,22.30
2019-04-20T15:39:25.301Z,22.30
2019-04-20T15:41:54.561Z,22.30
2019-04-20T15:44:25.054Z,22.30
2019-04-20T15:46:55.257Z,22.30
2019-04-20T15:49:24.406Z,22.30
2019-04-20T15:51:53.510Z,22.30
2019-04-20T15:54:23.248Z,22.20
2019-04-20T15:56:56.884Z,22.20
2019-04-20T15:59:24.350Z,22.20
2019-04-20T16:01:59.610Z,22.20
2019-04-20T16:04:50.741Z,22.20
2019-04-20T16:07:21.546Z,22.10
2019-04-20T16:09:51.643Z,22.10
2019-04-20T16:12:20.910Z,22.10
2019-04-20T16:14:51.268Z,22.10
2019-04-20T16:17:26.409Z,22.10
2019-04-20T16:20:00.256Z,22.10
2019-04-20T16:22:23.834Z,22.10
2019-04-20T16:24:59.249Z,22.10
2019-04-20T16:27:38.461Z,22.10
2019-04-20T16:30:09.697Z,22.00
2019-04-20T16:32:38.949Z,22.10
2019-04-20T16:35:08.787Z,22.10
2019-04-20T16:37:38.419Z,22.10
2019-04-20T16:40:08.512Z,22.10
2019-04-20T16:42:40.955Z,22.00
2019-04-20T16:45:09.657Z,22.00
2019-04-20T16:47:39.890Z,22.00
2019-04-20T16:50:09.252Z,22.00
2019-04-20T16:52:39.018Z,22.00
2019-04-20T16:55:11.118Z,22.00
2019-04-20T16:57:39.754Z,21.90
2019-04-20T17:00:09.530Z,21.90
2019-04-20T17:02:38.741Z,21.90
2019-04-20T17:05:09.202Z,21.80
2019-04-20T17:07:44.752Z,21.80
2019-04-20T17:10:16.031Z,21.80
2019-04-20T17:12:46.018Z,21.90
2019-04-20T17:15:16.480Z,21.90
2019-04-20T17:17:48.172Z,22.10
2019-04-20T17:20:17.783Z,22.20
2019-04-20T17:22:48.499Z,22.50
2019-04-20T17:25:17.814Z,22.70
2019-04-20T17:27:55.330Z,22.80
2019-04-20T17:30:54.981Z,22.90
2019-04-20T17:33:58.453Z,22.90
2019-04-20T17:36:22.791Z,22.90
2019-04-20T17:38:52.539Z,23.00
2019-04-20T17:41:42.922Z,23.00
2019-04-20T17:44:08.602Z,23.00
2019-04-20T17:46:37.098Z,22.80
2019-04-20T17:49:09.370Z,22.60
2019-04-20T17:51:40.092Z,22.40
2019-04-20T17:54:21.842Z,22.10
2019-04-20T17:56:52.178Z,21.90
2019-04-20T17:59:22.264Z,21.60
2019-04-20T18:02:20.516Z,21.30
2019-04-20T18:05:25.810Z,21.10
2019-04-20T18:07:53.502Z,20.80
2019-04-20T18:10:22.498Z,20.60
2019-04-20T18:12:42.373Z,20.30
2019-04-20T18:15:22.936Z,20.10
2019-04-20T18:18:24.408Z,19.90
2019-04-20T18:21:06.378Z,19.80
2019-04-20T18:23:39.946Z,19.60
2019-04-20T18:26:27.704Z,19.40
2019-04-20T18:28:59.211Z,19.10
2019-04-20T18:31:27.402Z,18.90
2019-04-20T18:34:08.967Z,18.70
2019-04-20T18:36:38.306Z,18.50
2019-04-20T18:39:10.502Z,18.30
2019-04-20T18:41:45.520Z,18.00
2019-04-20T18:44:10.805Z,17.80
2019-04-20T18:47:06.702Z,17.60
2019-04-20T18:49:27.214Z,17.50
2019-04-20T18:51:42.270Z,17.30
2019-04-20T18:54:19.275Z,17.10
2019-04-20T18:56:48.466Z,17.00
2019-04-20T18:59:14.400Z,16.90
2019-04-20T19:01:46.356Z,16.80
2019-04-20T19:04:14.580Z,16.70
2019-04-20T19:06:43.834Z,16.60
2019-04-20T19:09:16.792Z,16.60
2019-04-20T19:11:52.159Z,16.50
2019-04-20T19:14:38.047Z,16.40
2019-04-20T19:17:30.638Z,16.30
2019-04-20T19:19:57.888Z,16.20
2019-04-20T19:22:25.877Z,16.10
2019-04-20T19:24:55.880Z,16.10
2019-04-20T19:27:36.633Z,16.10
2019-04-20T19:30:10.660Z,16.00
2019-04-20T19:32:39.526Z,16.10
2019-04-20T19:35:08.034Z,16.10
2019-04-20T19:37:34.832Z,16.20
2019-04-20T19:40:11.067Z,16.30
2019-04-20T19:42:42.272Z,16.20
2019-04-20T19:45:31.563Z,16.10
2019-04-20T19:47:51.323Z,16.00
2019-04-20T19:50:31.362Z,15.80
2019-04-20T19:53:09.591Z,15.70
2019-04-20T19:55:23.399Z,15.60
2019-04-20T19:57:50.815Z,15.40
2019-04-20T20:00:09.589Z,15.30
2019-04-20T20:02:39.577Z,15.10
2019-04-20T20:05:12.276Z,14.90
2019-04-20T20:07:45.709Z,14.80
2019-04-20T20:10:12.929Z,14.80
2019-04-20T20:12:49.362Z,14.70
2019-04-20T20:15:22.071Z,14.60
2019-04-20T20:18:10.210Z,14.50
2019-04-20T20:20:38.252Z,14.50
2019-04-20T20:22:50.536Z,14.40
2019-04-20T20:25:17.019Z,14.40
2019-04-20T20:27:51.183Z,14.30
2019-04-20T20:30:24.409Z,14.30
2019-04-20T20:33:04.921Z,14.30
2019-04-20T20:35:23.547Z,14.30
2019-04-20T20:37:57.001Z,14.30
2019-04-20T20:40:27.382Z,14.30
2019-04-20T20:43:06.121Z,14.30
2019-04-20T20:45:32.811Z,14.30
2019-04-20T20:48:11.079Z,14.20
2019-04-20T20:50:43.164Z,14.20
2019-04-20T20:53:05.138Z,14.10
2019-04-20T20:55:34.376Z,14.10
2019-04-20T20:58:06.499Z,14.10
2019-04-20T21:00:37.255Z,14.00
2019-04-20T21:03:03.873Z,14.00
2019-04-20T21:05:29.580Z,14.00
2019-04-20T21:07:59.643Z,13.90
2019-04-20T21:10:36.672Z,13.90
2019-04-20T21:13:03.463Z,13.80
2019-04-20T21:15:31.594Z,13.70
2019-04-20T21:18:20.802Z,13.70
2019-04-20T21:20:49.246Z,13.70
2019-04-20T21:23:20.044Z,13.70
2019-04-20T21:25:47.609Z,13.70
2019-04-20T21:28:12.980Z,13.70
2019-04-20T21:30:46.421Z,13.60
2019-04-20T21:33:13.590Z,13.60
2019-04-20T21:35:48.359Z,13.60
2019-04-20T21:38:16.520Z,13.50
2019-04-20T21:40:48.283Z,13.50
2019-04-20T21:43:19.897Z,13.50
2019-04-20T21:45:52.473Z,13.40
2019-04-20T21:48:40.672Z,13.40
2019-04-20T21:51:05.815Z,13.30
2019-04-20T21:53:25.008Z,13.30
2019-04-20T21:55:52.025Z,13.20
2019-04-20T21:58:29.871Z,13.10
2019-04-20T22:01:09.498Z,13.10
2019-04-20T22:03:29.980Z,13.10
2019-04-20T22:06:07.025Z,13.00
2019-04-20T22:08:39.353Z,13.00
2019-04-20T22:11:08.153Z,12.90
2019-04-20T22:13:40.154Z,13.00
2019-04-20T22:16:11.071Z,12.90
2019-04-20T22:18:48.544Z,12.90
2019-04-20T22:21:21.033Z,12.80
2019-04-20T22:23:54.672Z,12.90
2019-04-20T22:26:26.306Z,12.80
2019-04-20T22:28:45.333Z,12.80
2019-04-20T22:31:14.504Z,12.80
2019-04-20T22:33:45.502Z,12.80
2019-04-20T22:36:16.511Z,12.70
2019-04-20T22:39:07.353Z,12.70
2019-04-20T22:41:40.717Z,12.70
2019-04-20T22:44:15.144Z,12.70
2019-04-20T22:46:42.739Z,12.80
2019-04-20T22:49:26.597Z,12.80
2019-04-20T22:51:54.716Z,12.80
2019-04-20T22:54:32.631Z,12.80
2019-04-20T22:56:58.616Z,12.80
2019-04-20T22:59:20.608Z,12.70
2019-04-20T23:01:51.431Z,12.60
2019-04-20T23:04:17.038Z,12.50
2019-04-20T23:06:50.063Z,12.50
2019-04-20T23:09:18.634Z,12.40
2019-04-20T23:11:49.490Z,12.40
2019-04-20T23:14:18.697Z,12.30
2019-04-20T23:16:51.815Z,12.20
2019-04-20T23:19:31.994Z,12.20
2019-04-20T23:21:57.602Z,12.20
2019-04-20T23:24:21.831Z,12.10
2019-04-20T23:26:51.147Z,12.00
2019-04-20T23:29:21.398Z,12.00
2019-04-20T23:31:55.639Z,11.90
2019-04-20T23:34:25.571Z,11.90
2019-04-20T23:36:52.710Z,11.80
2019-04-20T23:39:23.310Z,11.70
2019-04-20T23:41:58.601Z,11.60
2019-04-20T23:44:56.282Z,11.60
2019-04-20T23:47:47.866Z,11.50
2019-04-20T23:50:35.466Z,11.40
2019-04-20T23:53:06.610Z,11.30
2019-04-20T23:55:18.700Z,11.20
2019-04-20T23:57:54.757Z,11.20
